Time;durP1;ratioP1;P1;durP2;ratioP2;P2;SDS_P1;SDS_P2;PMS_P1;PMS_P2;Temp;Humidity;BMP_temperature;BMP_pressure;BME280_temperature;BME280_humidity;BME280_pressure;Samples;Min_cycle;Max_cycle;Signal;HPM_P1;HPM_P2
2022/06/12 00:00:33;;;;;;;1.33;1.20;;;;;23.10;101154.00;;;;2076094;28;20267;-55
2022/06/12 00:01:33;;;;;;;1.77;1.33;;;;;23.10;101155.00;;;;2078848;28;20221;-55
2022/06/12 00:02:33;;;;;;;1.50;1.30;;;;;23.10;101147.00;;;;2078098;28;20256;-56
2022/06/12 00:03:34;;;;;;;1.70;1.40;;;;;23.10;101151.00;;;;2078038;28;20217;-56
2022/06/12 00:04:34;;;;;;;1.93;1.30;;;;;23.10;101140.00;;;;2078813;28;20221;-56
2022/06/12 00:05:36;;;;;;;2.20;1.50;;;;;23.10;101144.00;;;;2077989;28;20387;-55
2022/06/12 00:06:36;;;;;;;1.40;1.30;;;;;23.10;101146.00;;;;2077944;28;20252;-57
2022/06/12 00:07:37;;;;;;;1.97;1.40;;;;;23.10;101151.00;;;;2070015;28;20237;-57
2022/06/12 00:08:38;;;;;;;1.50;1.33;;;;;23.10;101148.00;;;;2070023;28;20222;-56
2022/06/12 00:09:38;;;;;;;1.90;1.30;;;;;23.10;101152.00;;;;2069953;28;20222;-56
2022/06/12 00:10:41;;;;;;;1.83;1.60;;;;;23.10;101150.00;;;;2077684;28;20245;-56
2022/06/12 00:11:42;;;;;;;1.92;1.10;;;;;23.10;101149.00;;;;2078654;28;20252;-56
2022/06/12 00:12:43;;;;;;;1.38;1.25;;;;;23.10;101143.00;;;;2078216;28;20202;-56
2022/06/12 00:13:47;;;;;;;1.83;1.37;;;;;23.10;101151.00;;;;2069691;28;20710;-56
2022/06/12 00:14:47;;;;;;;1.38;1.23;;;;;23.10;101145.00;;;;2073821;28;20230;-56
2022/06/12 00:15:48;;;;;;;1.47;1.10;;;;;23.10;101146.00;;;;2071642;28;20233;-56
2022/06/12 00:16:52;;;;;;;2.30;1.60;;;;;23.10;101150.00;;;;2077886;28;20206;-55
2022/06/12 00:17:52;;;;;;;1.60;1.30;;;;;23.10;101142.00;;;;2080117;28;20217;-54
2022/06/12 00:18:54;;;;;;;1.77;1.50;;;;;23.10;101144.00;;;;2069336;28;20224;-55
2022/06/12 00:19:55;;;;;;;2.35;1.70;;;;;23.10;101154.00;;;;2061317;28;20729;-56
2022/06/12 00:21:10;;;;;;;1.50;1.40;;;;;23.10;101148.00;;;;2069454;28;20222;-55
2022/06/12 00:22:11;;;;;;;2.28;1.15;;;;;23.10;101144.00;;;;2071221;28;20298;-56
2022/06/12 00:23:13;;;;;;;2.70;1.60;;;;;23.10;101143.00;;;;2070762;28;20214;-59
2022/06/12 00:24:14;;;;;;;1.77;1.40;;;;;23.10;101147.00;;;;2062741;28;20281;-54
2022/06/12 00:25:15;;;;;;;1.30;1.20;;;;;23.10;101143.00;;;;2062447;28;20896;-55
2022/06/12 00:26:24;;;;;;;2.13;1.40;;;;;23.10;101142.00;;;;2068868;28;20222;-53
2022/06/12 00:27:25;;;;;;;1.50;1.40;;;;;23.10;101142.00;;;;2069822;28;20230;-55
2022/06/12 00:28:25;;;;;;;1.50;1.23;;;;;23.10;101148.00;;;;2077538;28;20575;-54
2022/06/12 00:29:28;;;;;;;2.13;1.50;;;;;23.10;101151.00;;;;2077978;28;20360;-54
2022/06/12 00:30:28;;;;;;;2.70;1.50;;;;;23.10;101153.00;;;;2077702;28;20253;-54
2022/06/12 00:31:29;;;;;;;1.60;1.07;;;;;23.10;101146.00;;;;2068459;28;20712;-55
2022/06/12 00:32:30;;;;;;;1.60;1.40;;;;;23.10;101146.00;;;;2066233;28;21094;-55
2022/06/12 00:33:32;;;;;;;1.40;1.30;;;;;23.10;101140.00;;;;2077446;28;20223;-55
2022/06/12 00:34:38;;;;;;;1.65;1.42;;;;;23.10;101135.00;;;;2077056;28;20584;-54
2022/06/12 00:35:38;;;;;;;1.35;1.25;;;;;23.10;101144.00;;;;2075359;28;20340;-54
2022/06/12 00:36:39;;;;;;;2.40;1.60;;;;;23.10;101144.00;;;;2075295;28;20226;-54
2022/06/12 00:37:39;;;;;;;2.13;1.60;;;;;23.10;101149.00;;;;2069303;28;20218;-54
2022/06/12 00:38:39;;;;;;;1.70;1.43;;;;;23.10;101150.00;;;;2073527;28;20304;-54
2022/06/12 00:39:40;;;;;;;1.50;1.20;;;;;23.10;101151.00;;;;2078260;28;20221;-55
2022/06/12 00:40:41;;;;;;;1.50;1.33;;;;;23.10;101156.00;;;;2077919;28;20733;-54
2022/06/12 00:41:42;;;;;;;1.70;1.27;;;;;23.10;101152.00;;;;2077476;28;20217;-54
2022/06/12 00:42:45;;;;;;;1.50;1.40;;;;;23.10;101152.00;;;;2068881;28;20222;-55
2022/06/12 00:43:45;;;;;;;2.05;1.50;;;;;23.10;101150.00;;;;2069374;28;20503;-55
2022/06/12 00:44:46;;;;;;;1.30;1.10;;;;;23.10;101155.00;;;;2066597;28;20648;-54
2022/06/12 00:45:47;;;;;;;1.63;1.40;;;;;23.10;101158.00;;;;2076092;28;20263;-53
2022/06/12 00:46:49;;;;;;;1.83;1.30;;;;;23.10;101151.00;;;;2077193;28;20307;-55
2022/06/12 00:47:50;;;;;;;2.20;1.45;;;;;23.00;101160.00;;;;2078337;28;20240;-54
2022/06/12 00:48:50;;;;;;;1.37;1.27;;;;;23.00;101156.00;;;;2077932;28;20942;-55
2022/06/12 00:50:01;;;;;;;2.43;1.33;;;;;23.00;101144.00;;;;2078543;28;20716;-55
2022/06/12 00:51:13;;;;;;;2.40;1.60;;;;;23.00;101104.00;;;;2069438;28;20214;-54
2022/06/12 00:52:22;;;;;;;1.63;1.25;;;;;23.00;101164.00;;;;2070313;28;20225;-55
2022/06/12 00:53:26;;;;;;;1.58;1.48;;;;;23.00;101148.00;;;;2066615;28;20237;-54
2022/06/12 00:54:26;;;;;;;1.80;1.33;;;;;23.00;101160.00;;;;2051610;28;20212;-55
2022/06/12 00:55:56;;;;;;;1.40;1.30;;;;;23.10;101156.00;;;;2061124;28;20250;-55
2022/06/12 00:56:57;;;;;;;1.50;1.40;;;;;23.00;101154.00;;;;2063911;28;20218;-54
2022/06/12 00:58:07;;;;;;;1.40;1.30;;;;;23.00;101153.00;;;;2053332;28;20216;-54
2022/06/12 00:59:12;;;;;;;1.77;1.33;;;;;23.00;101152.00;;;;2064266;28;20230;-54
2022/06/12 01:00:14;;;;;;;1.58;1.40;;;;;23.00;101156.00;;;;2069388;28;20210;-56
2022/06/12 01:01:21;;;;;;;2.15;1.30;;;;;22.80;101160.00;;;;2054871;28;20225;-56
2022/06/12 01:02:24;;;;;;;1.40;1.30;;;;;23.00;101151.00;;;;2059773;28;20687;-54
2022/06/12 01:03:25;;;;;;;2.55;1.70;;;;;23.00;101158.00;;;;2053997;28;20215;-55
2022/06/12 01:07:06;;;;;;;3.35;1.73;;;;;23.00;101150.00;;;;2070087;28;20218;-54
2022/06/12 01:08:07;;;;;;;2.50;1.50;;;;;23.00;101144.00;;;;2064494;28;20273;-56
2022/06/12 01:09:12;;;;;;;1.93;1.50;;;;;23.00;101132.00;;;;2061633;28;20222;-56
2022/06/12 01:10:13;;;;;;;2.08;1.60;;;;;23.00;101153.00;;;;2053674;28;20212;-56
2022/06/12 01:11:15;;;;;;;2.57;1.40;;;;;23.00;101140.00;;;;2055539;28;20302;-55
2022/06/12 01:12:18;;;;;;;1.73;1.42;;;;;23.00;101139.00;;;;2057779;28;21015;-55
2022/06/12 01:13:21;;;;;;;2.42;1.30;;;;;23.00;101143.00;;;;2062482;28;20571;-54
2022/06/12 01:14:25;;;;;;;1.70;1.42;;;;;23.00;101139.00;;;;2069842;28;20695;-56
2022/06/12 01:15:29;;;;;;;2.58;1.45;;;;;23.00;101134.00;;;;2066418;28;20219;-55
2022/06/12 01:16:29;;;;;;;1.92;1.50;;;;;23.00;101138.00;;;;2058236;28;20203;-56
2022/06/12 01:17:29;;;;;;;2.07;1.70;;;;;23.00;101142.00;;;;2045587;28;20212;-56
2022/06/12 01:18:34;;;;;;;1.40;1.30;;;;;23.00;101147.00;;;;2061397;28;20302;-56
2022/06/12 01:20:02;;;;;;;2.10;1.55;;;;;23.00;101143.00;;;;2069246;28;20818;-55
2022/06/12 01:21:21;;;;;;;1.52;1.17;;;;;23.00;101141.00;;;;2059560;28;20499;-56
2022/06/12 01:22:42;;;;;;;1.80;1.42;;;;;23.00;101148.00;;;;2069555;28;20214;-56
2022/06/12 01:24:12;;;;;;;1.70;1.35;;;;;23.00;101139.00;;;;2069697;28;20290;-54
2022/06/12 01:25:13;;;;;;;1.75;1.15;;;;;23.00;101143.00;;;;2056608;28;20219;-56
2022/06/12 01:26:32;;;;;;;1.75;1.65;;;;;23.00;101139.00;;;;2068799;28;20228;-56
2022/06/12 01:27:56;;;;;;;2.08;1.52;;;;;23.00;101136.00;;;;2067190;28;20237;-57
2022/06/12 01:29:01;;;;;;;2.13;1.70;;;;;23.00;101146.00;;;;2070055;28;20314;-55
2022/06/12 01:30:12;;;;;;;2.28;1.77;;;;;23.00;101145.00;;;;2060824;28;20218;-56
2022/06/12 01:31:40;;;;;;;2.03;1.45;;;;;23.00;101146.00;;;;2064054;28;20225;-56
2022/06/12 01:33:11;;;;;;;1.60;1.42;;;;;23.00;101149.00;;;;2071791;28;20272;-55
2022/06/12 01:34:40;;;;;;;1.50;1.40;;;;;23.00;101149.00;;;;2069360;28;20221;-55
2022/06/12 01:36:07;;;;;;;1.95;1.40;;;;;23.00;101143.00;;;;2047484;28;20227;-54
2022/06/12 01:37:30;;;;;;;1.88;1.67;;;;;23.00;101144.00;;;;2069930;28;20463;-58
2022/06/12 01:38:43;;;;;;;2.08;1.70;;;;;23.00;101144.00;;;;2073502;28;20601;-54
2022/06/12 01:40:07;;;;;;;2.13;1.58;;;;;23.00;101137.00;;;;2070784;28;20646;-55
2022/06/12 01:41:22;;;;;;;1.95;1.70;;;;;23.00;101141.00;;;;2074061;28;20741;-59
2022/06/12 01:42:57;;;;;;;1.80;1.40;;;;;23.00;101133.00;;;;2077808;28;20288;-57
2022/06/12 01:44:02;;;;;;;1.60;1.50;;;;;23.00;101142.00;;;;2070791;28;20319;-56
2022/06/12 01:45:18;;;;;;;1.67;1.33;;;;;23.00;101089.00;;;;2069806;28;20217;-57
2022/06/12 01:46:21;;;;;;;1.90;1.50;;;;;22.80;101140.00;;;;2076603;28;20217;-55
2022/06/12 01:47:26;;;;;;;1.88;1.30;;;;;23.00;101141.00;;;;2070399;28;20214;-55
2022/06/12 01:48:42;;;;;;;1.98;1.50;;;;;23.00;101140.00;;;;2069842;28;20934;-53
2022/06/12 01:49:54;;;;;;;2.65;1.90;;;;;23.00;101143.00;;;;2068414;28;20222;-58
2022/06/12 01:51:13;;;;;;;2.00;1.40;;;;;23.00;101148.00;;;;2070030;28;20368;-56
2022/06/12 01:52:40;;;;;;;1.70;1.30;;;;;23.00;101139.00;;;;2062203;28;20277;-55
2022/06/12 01:54:04;;;;;;;1.95;1.50;;;;;23.00;101144.00;;;;2069839;28;20582;-56
2022/06/12 01:55:08;;;;;;;2.22;1.25;;;;;23.00;101148.00;;;;2073288;28;20222;-55
2022/06/12 01:56:15;;;;;;;2.20;1.27;;;;;23.00;101146.00;;;;2064400;28;20214;-56
2022/06/12 01:57:18;;;;;;;1.30;1.20;;;;;23.00;101137.00;;;;2078662;28;20296;-55
2022/06/12 01:58:46;;;;;;;2.10;1.38;;;;;23.00;101145.00;;;;2078524;28;20304;-60
2022/06/12 01:59:55;;;;;;;2.50;1.70;;;;;23.00;101142.00;;;;2066857;28;20213;-55
2022/06/12 02:01:16;;;;;;;1.70;1.40;;;;;23.00;101151.00;;;;2077335;28;20205;-55
2022/06/12 02:02:21;;;;;;;2.05;1.58;;;;;23.00;101153.00;;;;2078482;28;20905;-55
2022/06/12 02:03:54;;;;;;;1.75;1.50;;;;;23.00;101149.00;;;;2073166;28;20213;-55
2022/06/12 02:04:56;;;;;;;3.33;1.50;;;;;23.00;101143.00;;;;2063572;28;20217;-59
2022/06/12 02:06:08;;;;;;;1.30;1.20;;;;;23.00;101142.00;;;;2065809;28;20218;-55
2022/06/12 02:07:25;;;;;;;2.33;1.60;;;;;23.00;101149.00;;;;2069285;28;20309;-55
2022/06/12 02:08:33;;;;;;;2.60;1.50;;;;;23.00;101146.00;;;;2066589;28;20302;-57
2022/06/12 02:09:59;;;;;;;1.95;1.42;;;;;23.00;101152.00;;;;2051846;28;20223;-57
2022/06/12 02:13:11;;;;;;;2.17;1.45;;;;;23.00;101140.00;;;;2064876;28;20211;-54
2022/06/12 02:14:12;;;;;;;1.50;1.40;;;;;23.00;101143.00;;;;2058970;28;20245;-56
2022/06/12 02:15:23;;;;;;;1.77;1.50;;;;;23.00;101143.00;;;;2065814;28;20560;-53
2022/06/12 02:16:27;;;;;;;2.08;1.35;;;;;23.00;101130.00;;;;2058407;28;20614;-56
2022/06/12 02:17:34;;;;;;;1.98;1.20;;;;;22.80;101142.00;;;;2068967;28;20225;-57
2022/06/12 02:18:41;;;;;;;2.42;1.45;;;;;23.00;101135.00;;;;2055813;28;20714;-56
2022/06/12 02:19:43;;;;;;;2.03;1.50;;;;;23.00;101135.00;;;;2057862;28;20230;-59
2022/06/12 02:20:47;;;;;;;1.42;1.33;;;;;23.00;101143.00;;;;2071602;28;20271;-55
2022/06/12 02:21:53;;;;;;;1.67;1.50;;;;;23.00;101135.00;;;;2055363;28;20297;-58
2022/06/12 02:22:53;;;;;;;2.55;1.40;;;;;23.00;101139.00;;;;2052928;28;20258;-55
2022/06/12 02:23:57;;;;;;;3.10;1.27;;;;;23.00;101142.00;;;;2062613;28;20258;-59
2022/06/12 02:25:04;;;;;;;1.58;1.30;;;;;23.00;101143.00;;;;2055522;28;20226;-56
2022/06/12 02:26:04;;;;;;;2.50;1.63;;;;;22.90;101136.00;;;;2056951;28;20215;-58
2022/06/12 02:27:04;;;;;;;2.03;1.10;;;;;22.90;101141.00;;;;2058901;28;20214;-56
2022/06/12 02:28:11;;;;;;;1.97;1.40;;;;;22.90;101136.00;;;;2059490;28;20266;-56
2022/06/12 02:29:14;;;;;;;2.13;1.48;;;;;22.90;101136.00;;;;2065248;28;20214;-55
2022/06/12 02:30:19;;;;;;;2.15;1.38;;;;;22.90;101129.00;;;;2067094;28;20277;-59
2022/06/12 02:31:23;;;;;;;2.00;1.17;;;;;23.00;101128.00;;;;2066756;28;20278;-56
2022/06/12 02:32:33;;;;;;;2.00;1.20;;;;;23.00;101141.00;;;;2063427;28;20744;-57
2022/06/12 02:33:36;;;;;;;2.95;1.60;;;;;22.90;101133.00;;;;2065227;28;20595;-55
2022/06/12 02:34:38;;;;;;;1.73;1.30;;;;;22.90;101130.00;;;;2063647;28;20206;-58
2022/06/12 02:35:42;;;;;;;2.30;1.40;;;;;23.00;101132.00;;;;2063577;28;20222;-56
2022/06/12 02:36:45;;;;;;;1.98;1.42;;;;;22.90;101128.00;;;;2080043;28;20604;-55
2022/06/12 02:37:49;;;;;;;1.52;1.30;;;;;23.00;101138.00;;;;2068952;28;20318;-55
2022/06/12 02:38:57;;;;;;;2.08;1.50;;;;;22.90;101143.00;;;;2071973;28;21040;-57
2022/06/12 02:40:00;;;;;;;1.50;1.40;;;;;22.90;101132.00;;;;2066303;28;20296;-56
2022/06/12 02:41:04;;;;;;;2.17;1.70;;;;;22.90;101134.00;;;;2071244;28;21618;-56
2022/06/12 02:42:07;;;;;;;2.03;1.20;;;;;22.90;101127.00;;;;2071864;28;20206;-55
2022/06/12 02:43:15;;;;;;;1.55;1.33;;;;;22.90;101138.00;;;;2062236;28;20753;-54
2022/06/12 02:44:24;;;;;;;1.77;1.40;;;;;22.90;101137.00;;;;2068603;28;20221;-59
2022/06/12 02:45:33;;;;;;;1.80;1.50;;;;;22.90;101139.00;;;;2066463;28;21263;-55
2022/06/12 02:46:37;;;;;;;1.55;1.20;;;;;22.90;101128.00;;;;2054334;28;20307;-55
2022/06/12 02:47:38;;;;;;;2.33;1.55;;;;;22.90;101140.00;;;;2050011;28;20243;-58
2022/06/12 02:48:38;;;;;;;1.50;1.10;;;;;22.90;101136.00;;;;2051337;28;20211;-54
2022/06/12 02:49:39;;;;;;;1.97;1.40;;;;;22.90;101132.00;;;;2056444;28;21038;-55
2022/06/12 02:51:05;;;;;;;1.87;1.40;;;;;22.90;101136.00;;;;2058821;28;20787;-59
2022/06/12 02:52:46;;;;;;;2.17;1.30;;;;;22.90;101130.00;;;;2070955;28;20220;-56
2022/06/12 02:53:58;;;;;;;1.92;1.40;;;;;22.90;101140.00;;;;2074902;28;20257;-55
2022/06/12 02:55:04;;;;;;;2.15;1.52;;;;;22.90;101146.00;;;;2074614;28;20684;-57
2022/06/12 02:56:20;;;;;;;1.70;1.50;;;;;22.90;101142.00;;;;2064366;28;20637;-56
2022/06/12 02:57:31;;;;;;;2.35;1.58;;;;;22.90;101136.00;;;;2072884;28;20225;-57
2022/06/12 02:58:58;;;;;;;2.20;1.30;;;;;22.90;101134.00;;;;2072531;28;20241;-58
2022/06/12 03:00:19;;;;;;;2.03;1.20;;;;;22.90;101135.00;;;;2070917;28;20206;-56
2022/06/12 03:01:22;;;;;;;1.65;1.52;;;;;22.90;101130.00;;;;2071164;28;20218;-55
2022/06/12 03:02:39;;;;;;;1.83;1.45;;;;;22.90;101127.00;;;;2062936;28;20309;-54
2022/06/12 03:04:03;;;;;;;1.95;1.75;;;;;22.90;101128.00;;;;2072619;28;20236;-56
2022/06/12 03:05:22;;;;;;;2.58;1.40;;;;;22.80;101123.00;;;;2075348;28;20616;-56
2022/06/12 03:06:26;;;;;;;1.48;1.20;;;;;22.90;101133.00;;;;2059089;28;20226;-55
2022/06/12 03:07:29;;;;;;;2.00;1.60;;;;;22.90;101126.00;;;;2057362;28;20216;-56
2022/06/12 03:08:32;;;;;;;2.28;1.27;;;;;22.90;101115.00;;;;2062704;28;20285;-56
2022/06/12 03:09:32;;;;;;;1.42;1.20;;;;;22.90;101130.00;;;;2062733;28;20921;-59
2022/06/12 03:10:36;;;;;;;2.17;1.40;;;;;22.90;101125.00;;;;2062810;28;20223;-58
2022/06/12 03:11:41;;;;;;;1.73;1.42;;;;;22.90;101122.00;;;;2063098;28;20226;-59
2022/06/12 03:12:41;;;;;;;1.98;1.52;;;;;22.90;101120.00;;;;2064393;28;20627;-55
2022/06/12 03:13:42;;;;;;;1.83;1.40;;;;;22.90;101125.00;;;;2066390;28;20214;-54
2022/06/12 03:14:42;;;;;;;1.40;1.23;;;;;22.90;101128.00;;;;2069895;28;20222;-57
2022/06/12 03:15:46;;;;;;;2.40;1.67;;;;;22.90;101121.00;;;;2078764;28;20239;-56
2022/06/12 03:16:46;;;;;;;2.33;1.63;;;;;22.90;101127.00;;;;2071529;28;20214;-60
2022/06/12 03:17:47;;;;;;;2.77;1.60;;;;;22.90;101128.00;;;;2065607;28;20215;-57
2022/06/12 03:18:50;;;;;;;1.40;1.30;;;;;22.90;101129.00;;;;2068350;28;20222;-55
2022/06/12 03:19:53;;;;;;;1.52;1.40;;;;;22.90;101130.00;;;;2075311;28;24182;-57
2022/06/12 03:20:59;;;;;;;1.73;1.20;;;;;22.90;101124.00;;;;2069331;28;20217;-56
2022/06/12 03:22:25;;;;;;;2.08;1.45;;;;;22.90;101130.00;;;;2072028;28;20234;-57
2022/06/12 03:23:41;;;;;;;2.65;1.50;;;;;22.90;101132.00;;;;2075731;28;20757;-59
2022/06/12 03:25:05;;;;;;;2.20;1.65;;;;;22.90;101129.00;;;;2071246;28;20717;-60
2022/06/12 03:26:08;;;;;;;2.55;1.65;;;;;22.90;101139.00;;;;2071270;28;20285;-56
2022/06/12 03:27:21;;;;;;;2.00;1.30;;;;;22.90;101133.00;;;;2064880;28;20737;-55
2022/06/12 03:28:34;;;;;;;4.65;1.80;;;;;22.90;101130.00;;;;2072531;28;20214;-56
2022/06/12 03:29:42;;;;;;;1.67;1.30;;;;;22.90;101125.00;;;;2069666;28;20214;-56
2022/06/12 03:30:46;;;;;;;2.00;1.30;;;;;22.90;101129.00;;;;2063865;28;20604;-56
2022/06/12 03:32:02;;;;;;;2.13;1.70;;;;;22.90;101123.00;;;;2071896;28;20214;-56
2022/06/12 03:33:02;;;;;;;1.60;1.50;;;;;22.90;101125.00;;;;2080023;28;20217;-56
2022/06/12 03:34:21;;;;;;;2.27;1.40;;;;;22.90;101136.00;;;;2079977;28;20206;-58
2022/06/12 03:36:19;;;;;;;1.98;1.77;;;;;22.90;101128.00;;;;2071170;28;20210;-58
2022/06/12 03:37:56;;;;;;;1.60;1.50;;;;;22.90;101132.00;;;;2061965;28;20458;-55
2022/06/12 03:39:01;;;;;;;1.70;1.55;;;;;22.90;101135.00;;;;2066405;28;20686;-55
2022/06/12 03:40:08;;;;;;;2.08;1.58;;;;;22.80;101132.00;;;;2055089;28;20600;-56
2022/06/12 03:41:25;;;;;;;2.00;1.55;;;;;22.90;101130.00;;;;2054333;28;20276;-56
2022/06/12 03:43:06;;;;;;;1.75;1.38;;;;;22.90;101128.00;;;;2054144;28;20243;-54
2022/06/12 03:44:14;;;;;;;2.10;1.58;;;;;22.90;101131.00;;;;2062069;28;20302;-56
2022/06/12 03:45:38;;;;;;;2.08;1.85;;;;;22.90;101129.00;;;;2052238;28;20236;-57
2022/06/12 03:46:45;;;;;;;1.45;1.35;;;;;22.90;101136.00;;;;2074420;28;20279;-58
2022/06/12 03:47:55;;;;;;;1.80;1.33;;;;;22.90;101137.00;;;;2055224;28;20226;-56
2022/06/12 03:48:58;;;;;;;2.75;2.17;;;;;22.90;101142.00;;;;2056639;28;20337;-56
2022/06/12 03:50:04;;;;;;;2.00;1.80;;;;;22.90;101136.00;;;;2063222;28;20222;-54
2022/06/12 03:51:15;;;;;;;1.90;1.70;;;;;22.90;101141.00;;;;2063051;28;20298;-59
2022/06/12 03:52:15;;;;;;;1.75;1.42;;;;;22.90;101139.00;;;;2064569;28;20523;-55
2022/06/12 03:53:22;;;;;;;1.83;1.37;;;;;22.90;101139.00;;;;2080117;28;20296;-54
2022/06/12 03:54:37;;;;;;;2.00;1.40;;;;;22.90;101143.00;;;;2080200;28;20575;-55
2022/06/12 03:58:47;;;;;;;1.65;1.38;;;;;22.90;101135.00;;;;2074140;28;20217;-57
2022/06/12 03:59:58;;;;;;;1.55;1.40;;;;;22.90;101134.00;;;;2062851;28;20284;-55
2022/06/12 04:00:59;;;;;;;1.95;1.75;;;;;22.90;101143.00;;;;2056295;28;20220;-59
2022/06/12 04:02:00;;;;;;;1.47;1.37;;;;;22.90;101142.00;;;;2074579;28;20379;-57
2022/06/12 04:03:08;;;;;;;1.83;1.45;;;;;22.90;101137.00;;;;2058486;28;20216;-59
2022/06/12 04:04:08;;;;;;;1.88;1.35;;;;;22.90;101140.00;;;;2040326;28;20232;-58
2022/06/12 04:05:09;;;;;;;1.60;1.47;;;;;22.80;101120.00;;;;2054612;28;20242;-54
2022/06/12 04:06:15;;;;;;;2.03;1.40;;;;;22.90;101141.00;;;;2062644;28;20340;-58
2022/06/12 04:07:15;;;;;;;1.98;1.58;;;;;22.90;101146.00;;;;2063324;28;21061;-58
2022/06/12 04:08:19;;;;;;;2.00;1.50;;;;;22.90;101142.00;;;;2062866;28;20214;-56
2022/06/12 04:09:23;;;;;;;2.28;1.30;;;;;22.90;101148.00;;;;2063128;28;20218;-56
2022/06/12 04:10:27;;;;;;;1.73;1.38;;;;;22.90;101137.00;;;;2063264;28;20215;-55
2022/06/12 04:11:28;;;;;;;1.55;1.40;;;;;22.90;101139.00;;;;2063420;28;20211;-56
2022/06/12 04:12:32;;;;;;;2.00;1.50;;;;;22.90;101147.00;;;;2063233;28;20239;-54
2022/06/12 04:13:33;;;;;;;1.92;1.63;;;;;22.90;101144.00;;;;2063087;28;20225;-56
2022/06/12 04:14:37;;;;;;;1.70;1.50;;;;;22.90;101140.00;;;;2055244;28;20304;-56
2022/06/12 04:15:57;;;;;;;2.50;1.63;;;;;22.70;101139.00;;;;2062943;28;20222;-54
2022/06/12 04:16:59;;;;;;;1.65;1.30;;;;;22.90;101143.00;;;;2052724;28;20208;-57
2022/06/12 04:17:59;;;;;;;1.50;1.40;;;;;22.90;101141.00;;;;2049452;28;20399;-56
2022/06/12 04:19:04;;;;;;;2.07;1.40;;;;;22.90;101137.00;;;;2062932;28;20242;-59
2022/06/12 04:20:05;;;;;;;1.55;1.38;;;;;22.90;101138.00;;;;2067084;28;20226;-57
2022/06/12 04:21:33;;;;;;;2.20;1.20;;;;;22.90;101142.00;;;;2066608;28;20215;-59
2022/06/12 04:22:54;;;;;;;2.13;1.45;;;;;22.90;101134.00;;;;2063992;28;20222;-52
2022/06/12 04:24:06;;;;;;;1.83;1.60;;;;;22.90;101141.00;;;;2060136;28;20714;-56
2022/06/12 04:25:37;;;;;;;1.75;1.42;;;;;22.90;101146.00;;;;2065070;28;20831;-57
2022/06/12 04:26:41;;;;;;;1.95;1.75;;;;;22.90;101145.00;;;;2076955;28;20241;-53
2022/06/12 04:27:42;;;;;;;2.90;1.73;;;;;22.90;101137.00;;;;2068903;28;20217;-53
2022/06/12 04:28:43;;;;;;;1.60;1.43;;;;;22.90;101144.00;;;;2062727;28;20242;-58
2022/06/12 04:29:53;;;;;;;2.10;1.38;;;;;22.90;101139.00;;;;2047142;28;20283;-54
2022/06/12 04:30:54;;;;;;;2.35;1.45;;;;;22.90;101129.00;;;;2064161;28;20257;-54
2022/06/12 04:31:56;;;;;;;2.30;1.50;;;;;22.90;101142.00;;;;2059438;28;20219;-57
2022/06/12 04:33:37;;;;;;;1.52;1.42;;;;;22.90;101145.00;;;;2058671;28;20216;-56
2022/06/12 04:34:39;;;;;;;1.20;1.10;;;;;22.90;101153.00;;;;2079268;28;20680;-55
2022/06/12 04:35:43;;;;;;;2.45;1.40;;;;;22.90;101152.00;;;;2070838;28;20233;-56
2022/06/12 04:36:45;;;;;;;1.98;1.65;;;;;22.90;101146.00;;;;2071061;28;20687;-56
2022/06/12 04:37:45;;;;;;;2.20;1.50;;;;;22.90;101141.00;;;;2055883;28;20287;-55
2022/06/12 04:38:46;;;;;;;2.03;1.50;;;;;22.90;101154.00;;;;2070718;28;20765;-55
2022/06/12 04:39:46;;;;;;;2.90;1.60;;;;;22.90;101146.00;;;;2071818;28;20209;-55
2022/06/12 04:40:46;;;;;;;1.67;1.50;;;;;22.90;101145.00;;;;2071390;28;20218;-56
2022/06/12 04:41:47;;;;;;;1.63;1.40;;;;;22.90;101149.00;;;;2072502;28;20678;-58
2022/06/12 04:42:47;;;;;;;2.03;1.73;;;;;22.90;101144.00;;;;2075395;28;20223;-58
2022/06/12 04:43:47;;;;;;;2.37;1.60;;;;;22.90;101140.00;;;;2072620;28;20218;-55
2022/06/12 04:44:48;;;;;;;1.73;1.50;;;;;22.90;101144.00;;;;2074202;28;20255;-56
2022/06/12 04:45:48;;;;;;;1.53;1.37;;;;;22.90;101153.00;;;;2066227;28;20211;-56
2022/06/12 04:46:50;;;;;;;1.60;1.30;;;;;22.90;101141.00;;;;2064140;28;20211;-57
2022/06/12 04:47:50;;;;;;;3.10;2.00;;;;;22.90;101138.00;;;;2068391;28;20210;-59
2022/06/12 04:48:52;;;;;;;1.97;1.67;;;;;22.90;101139.00;;;;2062460;28;20323;-55
2022/06/12 04:49:52;;;;;;;1.60;1.45;;;;;22.90;101145.00;;;;2062318;28;20230;-56
2022/06/12 04:50:53;;;;;;;2.17;1.57;;;;;22.90;101143.00;;;;2054870;28;20358;-56
2022/06/12 04:51:54;;;;;;;1.50;1.40;;;;;22.90;101146.00;;;;2064901;28;20454;-55
2022/06/12 04:53:01;;;;;;;2.70;1.60;;;;;22.90;101152.00;;;;2075275;28;20648;-59
2022/06/12 04:54:01;;;;;;;2.13;1.80;;;;;22.90;101148.00;;;;2068604;28;20221;-61
2022/06/12 04:55:02;;;;;;;1.87;1.50;;;;;22.90;101148.00;;;;2062009;28;20211;-59
2022/06/12 04:56:03;;;;;;;2.33;1.57;;;;;22.90;101151.00;;;;2061109;28;20238;-57
2022/06/12 04:57:03;;;;;;;2.20;1.70;;;;;22.90;101153.00;;;;2074438;28;20633;-57
2022/06/12 04:58:05;;;;;;;1.73;1.60;;;;;22.90;101159.00;;;;2083431;28;20216;-60
2022/06/12 04:59:06;;;;;;;2.00;1.50;;;;;22.90;101144.00;;;;2079160;28;20228;-59
2022/06/12 05:00:07;;;;;;;1.97;1.77;;;;;22.90;101146.00;;;;2084739;28;20212;-59
2022/06/12 05:01:07;;;;;;;2.50;1.60;;;;;22.90;101143.00;;;;2085586;28;20238;-57
2022/06/12 05:02:07;;;;;;;1.60;1.50;;;;;22.90;101148.00;;;;2085660;28;20467;-57
2022/06/12 05:03:08;;;;;;;1.77;1.37;;;;;22.90;101150.00;;;;2080344;28;20276;-56
2022/06/12 05:04:08;;;;;;;1.77;1.60;;;;;22.90;101146.00;;;;2080909;28;20213;-61
2022/06/12 05:05:09;;;;;;;1.70;1.60;;;;;22.90;101147.00;;;;2069684;28;20218;-57
2022/06/12 05:06:11;;;;;;;2.63;1.70;;;;;22.90;101139.00;;;;2077524;28;20624;-59
2022/06/12 05:07:12;;;;;;;2.00;1.60;;;;;22.90;101141.00;;;;2081658;28;20319;-57
2022/06/12 05:08:12;;;;;;;1.73;1.50;;;;;22.90;101137.00;;;;2076454;28;20222;-60
2022/06/12 05:09:13;;;;;;;1.60;1.50;;;;;22.90;101140.00;;;;2073059;28;20214;-57
2022/06/12 05:10:14;;;;;;;2.07;1.70;;;;;22.90;101132.00;;;;2078656;28;20260;-57
2022/06/12 05:11:15;;;;;;;2.13;1.73;;;;;22.90;101140.00;;;;2070570;28;20723;-60
2022/06/12 05:12:15;;;;;;;1.50;1.40;;;;;22.90;101147.00;;;;2068118;28;20262;-57
2022/06/12 05:13:16;;;;;;;2.03;1.60;;;;;22.90;101137.00;;;;2084799;28;20448;-57
2022/06/12 05:14:16;;;;;;;1.70;1.57;;;;;22.90;101142.00;;;;2080486;28;20218;-56
2022/06/12 05:15:17;;;;;;;2.13;1.63;;;;;22.90;101150.00;;;;2080468;28;20767;-61
2022/06/12 05:16:42;;;;;;;1.53;1.40;;;;;22.90;101139.00;;;;2083720;28;20300;-58
2022/06/12 05:17:45;;;;;;;1.80;1.40;;;;;22.90;101130.00;;;;2081130;28;20214;-56
2022/06/12 05:18:45;;;;;;;1.60;1.50;;;;;22.90;101136.00;;;;2076628;28;20214;-57
2022/06/12 05:19:46;;;;;;;2.13;1.63;;;;;22.90;101141.00;;;;2076048;28;20576;-58
2022/06/12 05:20:46;;;;;;;1.40;1.30;;;;;23.00;101141.00;;;;2084684;28;20735;-56
2022/06/12 05:21:47;;;;;;;1.77;1.40;;;;;23.00;101139.00;;;;2075490;28;20206;-57
2022/06/12 05:22:47;;;;;;;1.90;1.60;;;;;23.00;101133.00;;;;2075676;28;20206;-57
2022/06/12 05:23:48;;;;;;;1.67;1.50;;;;;23.00;101133.00;;;;2083511;28;20621;-56
2022/06/12 05:24:48;;;;;;;1.67;1.50;;;;;23.00;101137.00;;;;2084682;28;20323;-57
2022/06/12 05:25:48;;;;;;;2.50;1.80;;;;;23.00;101125.00;;;;2084182;28;20311;-57
2022/06/12 05:26:50;;;;;;;2.53;1.63;;;;;23.00;101132.00;;;;2081490;28;20209;-58
2022/06/12 05:27:51;;;;;;;3.75;1.90;;;;;23.00;101133.00;;;;2070073;28;20218;-56
2022/06/12 05:28:51;;;;;;;2.33;1.47;;;;;23.00;101130.00;;;;2068889;28;20237;-56
2022/06/12 05:29:52;;;;;;;2.23;1.53;;;;;23.00;101133.00;;;;2076865;28;20448;-54
2022/06/12 05:30:52;;;;;;;1.97;1.60;;;;;23.00;101128.00;;;;2077273;28;20526;-57
2022/06/12 05:31:53;;;;;;;2.40;1.63;;;;;23.00;101130.00;;;;2084164;28;20448;-58
2022/06/12 05:32:54;;;;;;;1.70;1.60;;;;;23.00;101125.00;;;;2084196;28;20225;-57
2022/06/12 05:33:54;;;;;;;2.00;1.60;;;;;23.00;101128.00;;;;2076358;28;20214;-57
2022/06/12 05:34:55;;;;;;;1.70;1.60;;;;;23.00;101130.00;;;;2076003;28;20501;-57
2022/06/12 05:35:55;;;;;;;2.03;1.57;;;;;23.00;101129.00;;;;2083877;28;20221;-57
2022/06/12 05:36:56;;;;;;;2.37;1.67;;;;;23.00;101131.00;;;;2084194;28;20213;-57
2022/06/12 05:37:56;;;;;;;1.93;1.40;;;;;23.00;101131.00;;;;2076169;28;20221;-57